Time;durP1;ratioP1;P1;durP2;ratioP2;P2;SDS_P1;SDS_P2;PMS_P1;PMS_P2;Temp;Humidity;BMP_temperature;BMP_pressure;BME280_temperature;BME280_humidity;BME280_pressure;Samples;Min_cycle;Max_cycle;Signal;HPM_P1;HPM_P2
2022/03/19 00:01:36;;;;;;;14.32;3.35;;;4.40;99.90;;;;;;5092003;28;20495;-71
2022/03/19 00:04:02;;;;;;;9.32;2.70;;;4.40;99.90;;;;;;5092436;28;20044;-71
2022/03/19 00:06:32;;;;;;;18.48;3.35;;;4.40;99.90;;;;;;5091336;28;20112;-70
2022/03/19 00:08:59;;;;;;;15.40;3.72;;;4.40;99.90;;;;;;5092595;28;20062;-71
2022/03/19 00:11:26;;;;;;;15.52;3.55;;;4.30;99.90;;;;;;5096007;28;20454;-70
2022/03/19 00:13:52;;;;;;;15.88;4.43;;;4.30;99.90;;;;;;5073608;28;20056;-70
2022/03/19 00:16:21;;;;;;;14.32;3.42;;;4.40;99.90;;;;;;5057878;28;20119;-70
2022/03/19 00:18:49;;;;;;;11.38;3.47;;;4.30;99.90;;;;;;5075278;28;20045;-71
2022/03/19 00:21:17;;;;;;;13.13;3.05;;;4.30;99.90;;;;;;5056865;28;20051;-70
2022/03/19 00:23:44;;;;;;;10.63;3.45;;;4.30;99.90;;;;;;5057290;28;20048;-70
2022/03/19 00:26:11;;;;;;;10.20;3.08;;;4.30;99.90;;;;;;5057199;28;20110;-70
2022/03/19 00:28:40;;;;;;;18.75;4.40;;;4.30;99.90;;;;;;5068140;28;20044;-70
2022/03/19 00:31:07;;;;;;;7.75;2.67;;;4.20;99.90;;;;;;5095553;28;20055;-70
2022/03/19 00:33:34;;;;;;;19.17;4.10;;;4.20;99.90;;;;;;5094878;28;20125;-68
2022/03/19 00:36:02;;;;;;;13.18;3.75;;;4.20;99.90;;;;;;5095471;28;20116;-68
2022/03/19 00:38:29;;;;;;;12.27;2.75;;;4.20;99.90;;;;;;5077106;28;20096;-70
2022/03/19 00:40:56;;;;;;;14.18;3.00;;;4.20;99.90;;;;;;5076437;28;20074;-70
2022/03/19 00:43:23;;;;;;;17.05;3.72;;;4.20;99.90;;;;;;5095103;28;20101;-68
2022/03/19 00:45:50;;;;;;;16.38;3.20;;;4.20;99.90;;;;;;5077315;28;20063;-69
2022/03/19 00:48:17;;;;;;;12.35;2.90;;;4.10;99.90;;;;;;5094397;28;20081;-69
2022/03/19 00:50:44;;;;;;;9.73;3.30;;;4.10;99.90;;;;;;5076810;28;20105;-69
2022/03/19 00:53:13;;;;;;;15.27;3.08;;;4.10;99.90;;;;;;5076783;28;20076;-69
2022/03/19 00:55:39;;;;;;;13.15;3.47;;;4.10;99.90;;;;;;5076521;28;20087;-69
2022/03/19 00:58:06;;;;;;;13.77;3.40;;;4.10;99.90;;;;;;5076545;28;20076;-69
2022/03/19 01:00:33;;;;;;;17.52;3.88;;;4.10;99.90;;;;;;5076880;28;20052;-69
2022/03/19 01:03:00;;;;;;;17.48;3.58;;;4.10;99.90;;;;;;5094107;28;20083;-69
2022/03/19 01:05:27;;;;;;;10.25;2.58;;;4.10;99.90;;;;;;5076473;28;20047;-68
2022/03/19 01:07:55;;;;;;;9.63;2.95;;;4.10;99.90;;;;;;5094722;28;20086;-68
2022/03/19 01:10:25;;;;;;;12.95;2.90;;;4.10;99.90;;;;;;5076142;28;20113;-69
2022/03/19 01:12:54;;;;;;;11.43;3.60;;;4.10;99.90;;;;;;5094327;28;20580;-68
2022/03/19 01:15:22;;;;;;;11.75;3.15;;;4.10;99.90;;;;;;5094655;28;20543;-69
2022/03/19 01:17:49;;;;;;;13.52;3.67;;;4.00;99.90;;;;;;5093636;28;20446;-69
2022/03/19 01:20:16;;;;;;;9.50;2.72;;;4.10;99.90;;;;;;5094196;28;20040;-69
2022/03/19 01:22:45;;;;;;;15.45;3.90;;;4.00;99.90;;;;;;5093757;28;20093;-70
2022/03/19 01:25:14;;;;;;;11.93;3.88;;;4.00;99.90;;;;;;5075917;28;20139;-70
2022/03/19 01:27:44;;;;;;;13.13;3.70;;;4.00;99.90;;;;;;5094387;28;20105;-69
2022/03/19 01:30:12;;;;;;;12.55;3.88;;;4.00;99.90;;;;;;5075799;28;20109;-70
2022/03/19 01:32:40;;;;;;;15.80;3.53;;;4.00;99.90;;;;;;5094128;28;20052;-70
2022/03/19 01:35:08;;;;;;;13.52;4.00;;;4.00;99.90;;;;;;5075733;28;20094;-69
2022/03/19 01:37:35;;;;;;;20.48;4.10;;;3.90;99.90;;;;;;5093433;28;20541;-71
2022/03/19 01:40:02;;;;;;;18.38;3.85;;;4.00;99.90;;;;;;5072554;28;20048;-70
2022/03/19 01:42:31;;;;;;;13.68;3.75;;;4.00;99.90;;;;;;5073873;28;20060;-70
2022/03/19 01:45:00;;;;;;;9.98;3.47;;;4.00;99.90;;;;;;5073141;28;20048;-69
2022/03/19 01:47:28;;;;;;;12.95;2.92;;;4.00;99.90;;;;;;5073753;28;20076;-69
2022/03/19 01:49:56;;;;;;;12.75;4.53;;;3.90;99.90;;;;;;5073558;28;20122;-69
2022/03/19 01:52:23;;;;;;;13.57;3.55;;;3.90;99.90;;;;;;5055014;28;20048;-70
2022/03/19 01:54:51;;;;;;;18.45;4.07;;;3.90;99.90;;;;;;5086197;28;20052;-69
2022/03/19 01:57:21;;;;;;;12.32;3.10;;;4.00;99.90;;;;;;5093922;28;20090;-70
2022/03/19 01:59:48;;;;;;;13.70;3.58;;;4.00;99.90;;;;;;5074744;28;20048;-70
2022/03/19 02:02:17;;;;;;;16.58;3.63;;;3.90;99.90;;;;;;5072116;28;20056;-70
2022/03/19 02:04:45;;;;;;;11.32;3.10;;;3.90;99.90;;;;;;5055252;28;20135;-70
2022/03/19 02:07:13;;;;;;;12.63;3.75;;;3.90;99.90;;;;;;5077781;28;20131;-70
2022/03/19 02:09:41;;;;;;;11.10;3.22;;;3.90;99.90;;;;;;5093480;28;20056;-70
2022/03/19 02:12:09;;;;;;;9.65;3.47;;;3.90;99.90;;;;;;5074861;28;20055;-70
2022/03/19 02:14:37;;;;;;;9.50;3.20;;;3.90;99.90;;;;;;5093393;28;20516;-69
2022/03/19 02:17:05;;;;;;;8.45;3.67;;;3.90;99.90;;;;;;5093316;28;20479;-69
2022/03/19 02:19:34;;;;;;;10.75;3.22;;;3.90;99.90;;;;;;5074718;28;20040;-70
2022/03/19 02:22:01;;;;;;;14.27;4.07;;;3.90;99.90;;;;;;5075019;28;20093;-70
2022/03/19 02:27:15;;;;;;;10.43;2.90;;;3.80;99.90;;;;;;5071151;28;20057;-69
2022/03/19 02:29:42;;;;;;;12.93;3.95;;;3.90;99.90;;;;;;5072977;28;20048;-69
2022/03/19 02:32:09;;;;;;;10.25;4.15;;;3.90;99.90;;;;;;5054408;28;20048;-69
2022/03/19 02:34:36;;;;;;;16.52;4.75;;;3.80;99.90;;;;;;5072425;28;20189;-69
2022/03/19 02:37:03;;;;;;;16.52;4.28;;;3.90;99.90;;;;;;5074370;28;20087;-70
2022/03/19 02:39:31;;;;;;;14.50;5.75;;;3.90;99.90;;;;;;5093054;28;20093;-69
2022/03/19 02:42:00;;;;;;;14.30;4.88;;;3.90;99.90;;;;;;5092338;28;20083;-69
2022/03/19 02:44:27;;;;;;;13.30;4.35;;;3.90;99.90;;;;;;5092884;28;20052;-70
2022/03/19 02:46:56;;;;;;;11.40;3.80;;;4.00;99.90;;;;;;5074584;28;20052;-70
2022/03/19 02:49:23;;;;;;;14.75;4.95;;;4.00;99.90;;;;;;5074124;28;20056;-70
2022/03/19 02:51:52;;;;;;;10.15;3.20;;;4.00;99.90;;;;;;5092791;28;20071;-70
2022/03/19 02:54:20;;;;;;;12.65;3.83;;;4.00;99.90;;;;;;5092043;28;20129;-72
2022/03/19 02:56:50;;;;;;;12.82;4.60;;;4.00;99.90;;;;;;5074939;28;20105;-71
2022/03/19 02:59:18;;;;;;;13.13;3.72;;;4.10;99.90;;;;;;5092917;28;20052;-72
2022/03/19 03:01:45;;;;;;;14.77;4.22;;;4.10;99.90;;;;;;5092233;28;20044;-71
2022/03/19 03:04:13;;;;;;;13.90;4.57;;;4.10;99.90;;;;;;5092388;28;20052;-71
2022/03/19 03:06:41;;;;;;;17.70;5.22;;;4.00;99.90;;;;;;5092917;28;20122;-72
2022/03/19 03:09:09;;;;;;;17.42;4.70;;;4.10;99.90;;;;;;5074056;28;20060;-71
2022/03/19 03:11:36;;;;;;;18.60;4.40;;;4.00;99.90;;;;;;5092569;28;20113;-72
2022/03/19 03:14:06;;;;;;;12.10;4.05;;;4.00;99.90;;;;;;5092711;28;20048;-72
2022/03/19 03:16:34;;;;;;;17.48;5.55;;;3.90;99.90;;;;;;5091660;28;20048;-72
2022/03/19 03:19:03;;;;;;;13.38;4.20;;;4.00;99.90;;;;;;5074388;28;20054;-72
2022/03/19 03:21:30;;;;;;;19.65;5.07;;;3.90;99.90;;;;;;5074284;28;20525;-72
2022/03/19 03:23:57;;;;;;;12.07;4.68;;;3.90;99.90;;;;;;5074108;28;20134;-72
2022/03/19 03:26:24;;;;;;;15.00;5.38;;;3.90;99.90;;;;;;5092478;28;20056;-72
2022/03/19 03:28:51;;;;;;;20.02;5.63;;;3.90;99.90;;;;;;5092995;28;20446;-71
2022/03/19 03:31:20;;;;;;;12.00;4.68;;;3.90;99.90;;;;;;5073895;28;20388;-72
2022/03/19 03:33:47;;;;;;;12.30;4.95;;;3.90;99.90;;;;;;5074448;28;20381;-71
2022/03/19 03:36:14;;;;;;;15.40;5.95;;;3.80;99.90;;;;;;5092319;28;20105;-72
2022/03/19 03:38:41;;;;;;;12.73;4.95;;;3.80;99.90;;;;;;5091990;28;20040;-71
2022/03/19 03:41:08;;;;;;;13.95;5.00;;;3.80;99.90;;;;;;5092491;28;20056;-71
2022/03/19 03:43:35;;;;;;;13.85;5.20;;;3.80;99.90;;;;;;5091832;28;20461;-72
2022/03/19 03:46:02;;;;;;;15.52;5.47;;;3.70;99.90;;;;;;5077928;28;20055;-71
2022/03/19 03:48:30;;;;;;;12.93;5.30;;;3.70;99.90;;;;;;5096701;28;20066;-71
2022/03/19 03:50:58;;;;;;;17.15;5.32;;;3.70;99.90;;;;;;5077742;28;20451;-71
2022/03/19 03:53:28;;;;;;;16.58;5.07;;;3.70;99.90;;;;;;5078216;28;20113;-71
2022/03/19 03:55:55;;;;;;;18.50;6.45;;;3.70;99.90;;;;;;5078057;28;20418;-71
2022/03/19 03:58:23;;;;;;;15.30;4.80;;;3.60;99.90;;;;;;5095531;28;20051;-71
2022/03/19 04:00:51;;;;;;;14.05;5.32;;;3.60;99.90;;;;;;5074299;28;20048;-71
2022/03/19 04:03:18;;;;;;;13.68;5.07;;;3.60;99.90;;;;;;5075614;28;20420;-71
2022/03/19 04:05:46;;;;;;;17.80;5.15;;;3.60;99.90;;;;;;5075038;28;20107;-71
2022/03/19 04:08:13;;;;;;;19.77;6.35;;;3.50;99.90;;;;;;5075837;28;20342;-71
2022/03/19 04:10:40;;;;;;;16.85;6.03;;;3.50;99.90;;;;;;5075477;28;20113;-71
2022/03/19 04:13:07;;;;;;;15.90;6.60;;;3.50;99.90;;;;;;5074873;28;20102;-71
2022/03/19 04:15:34;;;;;;;13.00;5.88;;;3.50;99.90;;;;;;5074761;28;20415;-71
2022/03/19 04:18:01;;;;;;;18.63;6.75;;;3.50;99.90;;;;;;5077920;28;20048;-72
2022/03/19 04:20:29;;;;;;;17.48;6.85;;;3.50;99.90;;;;;;5094797;28;20131;-71
2022/03/19 04:22:57;;;;;;;18.48;6.07;;;3.50;99.90;;;;;;5095721;28;20048;-72
2022/03/19 04:25:26;;;;;;;13.43;7.20;;;3.50;99.90;;;;;;5095318;28;20060;-71
2022/03/19 04:27:54;;;;;;;24.23;7.05;;;3.50;99.90;;;;;;5076878;28;20051;-73
2022/03/19 04:30:23;;;;;;;14.13;6.88;;;3.50;99.90;;;;;;5095239;28;20043;-71
2022/03/19 04:32:52;;;;;;;25.33;6.40;;;3.50;99.90;;;;;;5076964;28;20094;-71
2022/03/19 04:38:08;;;;;;;16.85;6.03;;;3.60;99.90;;;;;;5077599;28;20047;-71
2022/03/19 04:40:36;;;;;;;18.53;6.20;;;3.60;99.90;;;;;;5094726;28;20063;-72
2022/03/19 04:43:04;;;;;;;21.45;7.68;;;3.60;99.90;;;;;;5094891;28;20048;-71
2022/03/19 04:45:31;;;;;;;19.10;6.90;;;3.60;99.90;;;;;;5077081;28;20491;-71
2022/03/19 04:47:58;;;;;;;20.73;6.93;;;3.60;99.90;;;;;;5094692;28;20048;-72
2022/03/19 04:50:25;;;;;;;13.05;6.90;;;3.60;99.90;;;;;;5095437;28;20048;-72
2022/03/19 04:52:54;;;;;;;15.45;6.65;;;3.60;99.90;;;;;;5095174;28;20048;-72
2022/03/19 04:55:23;;;;;;;18.33;6.78;;;3.60;99.90;;;;;;5076342;28;20132;-72
2022/03/19 04:57:50;;;;;;;16.50;7.10;;;3.70;99.90;;;;;;5073585;28;20060;-73
2022/03/19 05:00:19;;;;;;;13.95;6.72;;;3.60;99.90;;;;;;5074893;28;20118;-73
2022/03/19 05:02:46;;;;;;;18.02;7.95;;;3.60;99.90;;;;;;5056095;28;20052;-73
2022/03/19 05:05:13;;;;;;;16.60;7.15;;;3.70;99.90;;;;;;5074582;28;20049;-73
2022/03/19 05:07:40;;;;;;;19.10;7.38;;;3.60;99.90;;;;;;5074571;28;20480;-72
2022/03/19 05:12:55;;;;;;;19.67;7.45;;;3.60;99.90;;;;;;5076724;28;20054;-72
2022/03/19 05:15:22;;;;;;;17.40;6.68;;;3.60;99.90;;;;;;5094237;28;20097;-72
2022/03/19 05:17:49;;;;;;;16.75;6.95;;;3.60;99.90;;;;;;5076750;28;20060;-73
2022/03/19 05:20:15;;;;;;;21.70;7.15;;;3.60;99.90;;;;;;5094700;28;20120;-72
2022/03/19 05:22:42;;;;;;;19.77;7.25;;;3.60;99.90;;;;;;5075965;28;20098;-73
2022/03/19 05:25:10;;;;;;;18.67;7.32;;;3.60;99.90;;;;;;5093933;28;20105;-73
2022/03/19 05:27:38;;;;;;;14.75;6.55;;;3.60;99.90;;;;;;5094632;28;20192;-74
2022/03/19 05:30:07;;;;;;;12.63;7.13;;;3.70;99.90;;;;;;5093681;28;20062;-73
2022/03/19 05:32:34;;;;;;;17.17;7.15;;;3.70;99.90;;;;;;5094313;28;20380;-73
2022/03/19 05:35:02;;;;;;;15.50;7.50;;;3.80;99.90;;;;;;5076179;28;20060;-72
2022/03/19 05:37:29;;;;;;;15.65;7.53;;;3.70;99.90;;;;;;5075602;28;20087;-73
2022/03/19 05:39:56;;;;;;;20.90;6.97;;;3.80;99.90;;;;;;5094916;28;20044;-72
2022/03/19 05:42:24;;;;;;;22.70;7.97;;;3.70;99.90;;;;;;5088607;28;20056;-75
2022/03/19 05:44:51;;;;;;;15.07;7.30;;;4.40;99.90;;;;;;5074457;28;20059;-71
2022/03/19 05:47:20;;;;;;;14.48;7.35;;;4.00;99.90;;;;;;5072520;28;20059;-71
2022/03/19 05:49:47;;;;;;;15.77;6.60;;;4.40;99.90;;;;;;5054530;28;20485;-72
2022/03/19 05:52:14;;;;;;;19.80;7.38;;;4.40;99.90;;;;;;5072796;28;20052;-71
2022/03/19 05:54:41;;;;;;;17.85;7.93;;;4.20;99.90;;;;;;5070538;28;20179;-71
2022/03/19 05:57:07;;;;;;;17.20;8.15;;;4.10;99.90;;;;;;5066892;28;20151;-70
2022/03/19 05:59:34;;;;;;;15.68;7.28;;;4.10;99.90;;;;;;5086958;28;20036;-70
2022/03/19 06:02:02;;;;;;;20.75;8.90;;;4.10;99.90;;;;;;5067333;28;20048;-71
2022/03/19 06:04:30;;;;;;;18.00;7.43;;;4.10;99.90;;;;;;5065015;28;20051;-70
2022/03/19 06:06:57;;;;;;;15.80;7.40;;;4.00;99.90;;;;;;5070292;28;20330;-70
2022/03/19 06:09:24;;;;;;;17.10;8.30;;;4.10;99.90;;;;;;5066922;28;20403;-69
2022/03/19 06:11:51;;;;;;;14.95;7.22;;;4.10;99.90;;;;;;5088691;28;20410;-70
2022/03/19 06:14:18;;;;;;;18.20;7.65;;;4.10;99.90;;;;;;5066333;28;20052;-70
2022/03/19 06:16:45;;;;;;;14.07;7.95;;;4.10;99.90;;;;;;5086673;28;20056;-70
2022/03/19 06:19:12;;;;;;;12.65;7.15;;;4.10;99.90;;;;;;5082928;28;20048;-71
2022/03/19 06:21:42;;;;;;;17.20;7.50;;;4.10;99.90;;;;;;5085311;28;20048;-71
2022/03/19 06:24:09;;;;;;;15.57;8.18;;;4.10;99.90;;;;;;5087468;28;20044;-71
2022/03/19 06:26:37;;;;;;;16.95;8.70;;;4.20;99.90;;;;;;5064630;28;20048;-71
2022/03/19 06:29:04;;;;;;;22.45;8.60;;;4.20;99.90;;;;;;5083395;28;20116;-71
2022/03/19 06:31:32;;;;;;;27.60;8.32;;;4.30;99.90;;;;;;5065723;28;20110;-70
2022/03/19 06:33:59;;;;;;;18.95;8.15;;;4.30;99.90;;;;;;5084905;28;20044;-70
2022/03/19 06:39:12;;;;;;;18.65;7.90;;;4.40;99.90;;;;;;5086089;28;20052;-71
2022/03/19 06:41:38;;;;;;;15.88;8.23;;;4.50;99.90;;;;;;5087871;28;20052;-71
2022/03/19 06:44:05;;;;;;;18.65;8.13;;;4.60;99.90;;;;;;5084957;28;20052;-70
2022/03/19 06:46:32;;;;;;;18.52;7.30;;;4.60;99.90;;;;;;5088735;28;20079;-70
2022/03/19 06:48:59;;;;;;;18.35;7.38;;;4.70;99.90;;;;;;5065457;28;20040;-71
2022/03/19 06:51:26;;;;;;;20.30;6.90;;;4.80;99.90;;;;;;5065664;28;20389;-72
2022/03/19 06:53:53;;;;;;;17.58;6.45;;;4.90;99.90;;;;;;5078462;28;20044;-71
2022/03/19 06:56:21;;;;;;;15.50;6.80;;;5.10;99.90;;;;;;5073908;28;20056;-71
2022/03/19 06:58:48;;;;;;;15.15;6.60;;;5.70;99.90;;;;;;5056067;28;20451;-71
2022/03/19 07:01:18;;;;;;;20.90;6.93;;;6.20;99.90;;;;;;5071325;28;20040;-71
2022/03/19 07:03:46;;;;;;;19.67;6.40;;;6.60;99.90;;;;;;5071230;28;20044;-71
2022/03/19 07:06:14;;;;;;;12.77;5.63;;;7.00;99.90;;;;;;5071529;28;20306;-71
2022/03/19 07:08:41;;;;;;;14.35;6.00;;;7.00;99.90;;;;;;5067812;28;20064;-72
2022/03/19 07:11:08;;;;;;;16.38;6.03;;;7.20;99.90;;;;;;5056478;28;20110;-71
2022/03/19 07:13:37;;;;;;;13.68;5.38;;;7.50;99.90;;;;;;5077321;28;20135;-71
2022/03/19 07:16:06;;;;;;;15.30;6.00;;;8.10;99.90;;;;;;5061204;28;20048;-71
2022/03/19 07:18:33;;;;;;;15.73;6.10;;;8.70;99.90;;;;;;5054743;28;20407;-73
2022/03/19 07:21:00;;;;;;;14.68;6.28;;;9.80;99.90;;;;;;5082959;28;20377;-72
2022/03/19 07:23:27;;;;;;;11.57;5.10;;;10.70;99.90;;;;;;5074306;28;20401;-73
2022/03/19 07:25:54;;;;;;;14.65;4.45;;;11.50;99.90;;;;;;5072534;28;20052;-72
2022/03/19 07:28:21;;;;;;;35.22;6.80;;;12.00;99.60;;;;;;5090429;28;20109;-72
2022/03/19 07:30:49;;;;;;;28.27;6.68;;;12.30;97.70;;;;;;5064434;28;20101;-73
2022/03/19 07:33:16;;;;;;;21.92;6.07;;;12.50;95.10;;;;;;5059905;28;20458;-72
2022/03/19 07:35:43;;;;;;;10.32;4.75;;;13.00;94.60;;;;;;5056513;28;20499;-72
2022/03/19 07:38:11;;;;;;;17.67;5.50;;;13.10;93.60;;;;;;5074053;28;20122;-72
2022/03/19 07:43:24;;;;;;;12.40;4.97;;;13.50;91.40;;;;;;5089392;28;20133;-73
2022/03/19 07:45:53;;;;;;;13.07;4.72;;;13.90;87.40;;;;;;5095054;28;20105;-72
2022/03/19 07:48:20;;;;;;;22.17;4.75;;;13.60;85.90;;;;;;5076683;28;20048;-73
2022/03/19 07:50:47;;;;;;;10.32;4.80;;;14.00;84.80;;;;;;5073850;28;20055;-73
2022/03/19 07:53:14;;;;;;;9.32;4.53;;;14.20;82.00;;;;;;5060299;28;20052;-73
2022/03/19 07:55:41;;;;;;;13.60;4.68;;;15.10;83.90;;;;;;5073883;28;20103;-73
2022/03/19 07:58:08;;;;;;;10.88;4.43;;;15.20;83.60;;;;;;5073662;28;20048;-73
2022/03/19 08:00:34;;;;;;;11.32;4.80;;;15.30;76.10;;;;;;5077264;28;20040;-74
2022/03/19 08:03:03;;;;;;;12.30;4.65;;;15.30;77.60;;;;;;5061312;28;20052;-73
2022/03/19 08:05:29;;;;;;;12.80;4.90;;;14.90;76.90;;;;;;5073217;28;20048;-73
2022/03/19 08:07:56;;;;;;;12.73;4.55;;;15.60;79.90;;;;;;5075381;28;20082;-73
2022/03/19 08:10:24;;;;;;;13.10;4.15;;;16.30;73.50;;;;;;5074753;28;20040;-73
2022/03/19 08:12:53;;;;;;;15.05;4.43;;;16.40;76.70;;;;;;5057147;28;20523;-73
2022/03/19 08:15:21;;;;;;;12.55;4.75;;;16.20;71.60;;;;;;5057782;28;20045;-73
2022/03/19 08:17:48;;;;;;;16.25;4.78;;;16.00;72.80;;;;;;5057242;28;20045;-73
2022/03/19 08:20:16;;;;;;;14.02;5.03;;;15.90;71.40;;;;;;5075269;28;20054;-72
2022/03/19 08:22:43;;;;;;;10.55;4.65;;;16.40;73.20;;;;;;5057751;28;20106;-73
2022/03/19 08:25:10;;;;;;;11.65;3.92;;;16.60;72.80;;;;;;5056338;28;20114;-73
2022/03/19 08:27:36;;;;;;;11.98;4.85;;;16.50;71.90;;;;;;5075389;28;20048;-73
2022/03/19 08:30:05;;;;;;;11.38;4.60;;;17.00;71.90;;;;;;5074741;28;20045;-73
2022/03/19 08:32:32;;;;;;;10.18;5.00;;;17.10;69.60;;;;;;5057211;28;20071;-73
2022/03/19 08:34:59;;;;;;;10.15;4.32;;;17.20;68.20;;;;;;5075326;28;20052;-73
2022/03/19 08:37:27;;;;;;;11.52;4.25;;;17.00;66.60;;;;;;5075330;28;20060;-73
2022/03/19 08:42:40;;;;;;;14.93;3.70;;;17.10;66.30;;;;;;5075383;28;20067;-73
2022/03/19 08:45:07;;;;;;;17.95;4.72;;;17.90;67.20;;;;;;5057227;28;20106;-73
2022/03/19 08:47:34;;;;;;;14.27;4.57;;;18.10;66.40;;;;;;5074395;28;20098;-73
2022/03/19 08:50:01;;;;;;;10.98;4.20;;;18.30;65.70;;;;;;5056843;28;20403;-73
2022/03/19 08:52:29;;;;;;;14.82;4.40;;;18.70;66.10;;;;;;5057148;28;20056;-73
2022/03/19 08:54:56;;;;;;;11.25;3.28;;;18.70;63.70;;;;;;5060274;28;20541;-72
2022/03/19 08:57:23;;;;;;;13.05;3.92;;;19.80;67.00;;;;;;5092921;28;20136;-73
2022/03/19 08:59:50;;;;;;;67.03;8.73;;;20.50;62.70;;;;;;5095125;28;20048;-73
2022/03/19 09:02:17;;;;;;;12.43;3.63;;;19.40;59.10;;;;;;5076281;28;20052;-73
2022/03/19 09:04:45;;;;;;;8.60;3.25;;;19.30;61.40;;;;;;5076813;28;20099;-73
2022/03/19 09:07:14;;;;;;;11.40;4.15;;;19.40;59.50;;;;;;5094409;28;20056;-73
2022/03/19 09:09:42;;;;;;;8.38;3.20;;;19.80;58.70;;;;;;5076660;28;20591;-73
2022/03/19 09:12:10;;;;;;;7.43;3.15;;;20.10;58.90;;;;;;5094686;28;20066;-74
2022/03/19 09:14:37;;;;;;;12.15;3.53;;;20.00;58.60;;;;;;5094277;28;20126;-73
2022/03/19 09:17:05;;;;;;;10.05;3.33;;;20.20;59.70;;;;;;5076445;28;20047;-73
2022/03/19 09:19:32;;;;;;;8.35;2.90;;;19.80;59.40;;;;;;5075449;28;20056;-71
2022/03/19 09:22:00;;;;;;;10.38;3.33;;;19.80;58.30;;;;;;5054295;28;20415;-72
2022/03/19 09:24:28;;;;;;;9.88;3.13;;;19.50;59.50;;;;;;5073086;28;20122;-71
2022/03/19 09:26:56;;;;;;;9.45;3.00;;;19.50;60.30;;;;;;5091449;28;20101;-71
2022/03/19 09:29:23;;;;;;;10.55;3.38;;;19.90;58.30;;;;;;5064698;28;20056;-71
2022/03/19 09:31:49;;;;;;;10.63;3.35;;;19.80;58.00;;;;;;5056302;28;20507;-72
2022/03/19 09:34:16;;;;;;;11.30;3.60;;;20.40;58.40;;;;;;5073036;28;20481;-74
2022/03/19 09:36:46;;;;;;;9.90;3.55;;;20.80;57.70;;;;;;5069015;28;20044;-75
2022/03/19 09:39:14;;;;;;;11.73;3.22;;;21.00;56.60;;;;;;5085873;28;20052;-75
2022/03/19 09:41:42;;;;;;;9.85;3.38;;;20.80;56.70;;;;;;5072407;28;20088;-75
2022/03/19 09:44:11;;;;;;;10.27;3.15;;;21.20;56.50;;;;;;5055798;28;20052;-64
2022/03/19 09:46:38;;;;;;;44.03;6.60;;;21.70;54.60;;;;;;5055027;28;20068;-63
2022/03/19 09:49:05;;;;;;;12.32;3.88;;;21.50;55.00;;;;;;5054468;28;20051;-64
2022/03/19 09:51:33;;;;;;;20.65;3.72;;;21.60;54.60;;;;;;5067863;28;20046;-64
2022/03/19 09:54:00;;;;;;;14.35;4.70;;;21.30;54.30;;;;;;5072530;28;20079;-67
2022/03/19 09:56:27;;;;;;;13.15;3.88;;;21.70;55.00;;;;;;5072025;28;20052;-67
2022/03/19 09:58:54;;;;;;;10.32;3.35;;;21.70;55.00;;;;;;5075232;28;20044;-68
2022/03/19 10:01:24;;;;;;;10.25;3.17;;;22.10;55.20;;;;;;5058780;28;20059;-67
2022/03/19 10:03:50;;;;;;;12.83;3.60;;;21.80;53.80;;;;;;5053858;28;20059;-69
2022/03/19 10:09:02;;;;;;;18.27;3.75;;;21.60;53.40;;;;;;5058463;28;20051;-70
2022/03/19 10:11:31;;;;;;;8.95;3.08;;;21.40;53.60;;;;;;5072360;28;20502;-70
2022/03/19 10:13:59;;;;;;;10.25;3.17;;;21.70;53.20;;;;;;5073519;28;20139;-69
2022/03/19 10:16:29;;;;;;;7.60;3.00;;;21.80;52.90;;;;;;5072082;28;20048;-70
2022/03/19 10:18:58;;;;;;;9.82;3.42;;;21.90;53.60;;;;;;5071853;28;20054;-70
2022/03/19 10:21:25;;;;;;;32.90;4.80;;;21.60;53.80;;;;;;5073330;28;20129;-68
2022/03/19 10:23:52;;;;;;;11.55;3.55;;;21.60;53.80;;;;;;5073096;28;20095;-69
2022/03/19 10:26:27;;;;;;;9.38;3.47;;;21.60;54.30;;;;;;5071252;28;20048;-70
2022/03/19 10:28:59;;;;;;;9.82;2.90;;;21.90;53.80;;;;;;5072031;28;20504;-69
2022/03/19 10:31:35;;;;;;;28.75;5.88;;;21.60;54.00;;;;;;5076567;28;20056;-68
2022/03/19 10:34:06;;;;;;;13.82;3.47;;;21.60;53.80;;;;;;5074369;28;20076;-68
2022/03/19 10:36:34;;;;;;;15.70;3.07;;;21.60;53.70;;;;;;5091407;28;20052;-65
2022/03/19 10:39:05;;;;;;;21.58;3.20;;;21.30;53.00;;;;;;5089559;28;20270;-68
2022/03/19 10:41:35;;;;;;;18.33;3.22;;;21.50;53.50;;;;;;5056863;28;20044;-68
2022/03/19 10:44:11;;;;;;;12.40;3.67;;;21.70;53.10;;;;;;5060451;28;20074;-68
2022/03/19 10:46:43;;;;;;;14.77;3.47;;;21.30;53.00;;;;;;5062431;28;20074;-66
2022/03/19 10:49:14;;;;;;;19.58;2.72;;;22.00;51.70;;;;;;5067805;28;20056;-70
2022/03/19 10:51:43;;;;;;;405.83;71.07;;;22.20;51.80;;;;;;5066703;28;20141;-68
2022/03/19 10:54:14;;;;;;;22.98;3.92;;;22.10;50.70;;;;;;5087629;28;20515;-69
2022/03/19 10:56:41;;;;;;;6.18;2.25;;;21.40;49.90;;;;;;5083256;28;20052;-70
2022/03/19 10:59:08;;;;;;;7.97;2.03;;;21.90;51.10;;;;;;5083307;28;20052;-69
2022/03/19 11:01:36;;;;;;;6.45;2.63;;;21.60;48.80;;;;;;5064267;28;20048;-70
2022/03/19 11:04:06;;;;;;;7.03;2.17;;;21.50;50.40;;;;;;5084918;28;20101;-75
2022/03/19 11:06:36;;;;;;;7.50;3.10;;;21.10;51.40;;;;;;5058775;28;20075;-76
2022/03/19 11:09:06;;;;;;;5.50;2.47;;;21.30;52.50;;;;;;5071082;28;20193;-77
2022/03/19 11:11:41;;;;;;;6.35;2.05;;;21.00;51.70;;;;;;5055775;28;20079;-72
2022/03/19 11:14:11;;;;;;;13.48;2.35;;;21.20;50.30;;;;;;5052762;28;20054;-75
2022/03/19 11:16:38;;;;;;;;;;;21.30;50.40;;;;;;5058242;28;20442;-75
2022/03/19 11:19:06;;;;;;;7.47;2.28;;;20.80;49.10;;;;;;5053282;28;19990;-75
2022/03/19 11:21:34;;;;;;;7.53;2.03;;;20.70;49.50;;;;;;5075190;28;20483;-75
2022/03/19 11:24:09;;;;;;;4.93;1.90;;;20.20;49.10;;;;;;5071990;28;20088;-74
2022/03/19 11:26:37;;;;;;;4.95;2.47;;;20.90;50.90;;;;;;5062843;28;20053;-75
2022/03/19 11:29:06;;;;;;;4.97;1.60;;;20.70;50.40;;;;;;5054936;28;20232;-75
2022/03/19 11:31:33;;;;;;;6.93;1.90;;;20.80;49.40;;;;;;5071605;28;20450;-75
2022/03/19 11:34:14;;;;;;;8.68;2.17;;;20.60;49.90;;;;;;5053217;28;20048;-75
2022/03/19 11:36:56;;;;;;;3.80;1.63;;;20.80;48.20;;;;;;5071350;28;20149;-75
2022/03/19 11:39:22;;;;;;;7.68;2.40;;;20.70;47.80;;;;;;5079567;28;20110;-74
2022/03/19 11:41:50;;;;;;;6.95;2.10;;;20.60;48.60;;;;;;5085559;28;20120;-75
2022/03/19 11:44:18;;;;;;;4.57;2.00;;;21.30;47.60;;;;;;5078532;28;20067;-75
2022/03/19 11:46:59;;;;;;;3.85;1.65;;;21.20;48.60;;;;;;5062529;28;20049;-74
2022/03/19 11:49:45;;;;;;;3.72;1.25;;;21.40;47.90;;;;;;5078020;28;20083;-74
2022/03/19 11:52:18;;;;;;;3.22;1.48;;;21.40;47.20;;;;;;5058111;28;20496;-74
2022/03/19 11:55:06;;;;;;;4.60;1.55;;;21.60;47.20;;;;;;5066522;28;20044;-74
2022/03/19 11:57:50;;;;;;;5.35;1.40;;;21.60;48.30;;;;;;5059424;28;20520;-75
2022/03/19 12:00:18;;;;;;;6.45;1.55;;;22.20;49.50;;;;;;5070897;28;20052;-74
2022/03/19 12:03:06;;;;;;;6.45;1.70;;;22.20;49.30;;;;;;5060541;28;20484;-71
2022/03/19 12:05:34;;;;;;;7.70;2.00;;;21.90;50.10;;;;;;5054297;28;20543;-74
2022/03/19 12:08:14;;;;;;;4.13;1.30;;;21.90;51.10;;;;;;5061320;28;20059;-73
2022/03/19 12:10:57;;;;;;;6.93;1.23;;;22.00;48.70;;;;;;5056390;28;20045;-73
2022/03/19 12:13:52;;;;;;;5.25;1.33;;;22.20;47.60;;;;;;5068308;28;20094;-74
2022/03/19 12:16:38;;;;;;;12.40;1.73;;;22.40;46.60;;;;;;5043882;28;20048;-73
2022/03/19 12:19:05;;;;;;;4.00;1.23;;;22.30;46.00;;;;;;5074322;28;20040;-74
2022/03/19 12:21:35;;;;;;;4.82;1.55;;;21.90;46.60;;;;;;5072253;28;20154;-72
2022/03/19 12:24:27;;;;;;;151.27;19.60;;;21.90;47.20;;;;;;5095123;28;20060;-72
2022/03/19 12:26:56;;;;;;;8.68;2.03;;;22.20;47.70;;;;;;5074650;28;20048;-72
2022/03/19 12:29:25;;;;;;;19.23;2.63;;;22.30;47.60;;;;;;5056450;28;20104;-73
2022/03/19 12:31:54;;;;;;;10.07;2.00;;;22.10;47.60;;;;;;5055861;28;20064;-73
2022/03/19 12:34:22;;;;;;;4.28;1.60;;;22.40;47.10;;;;;;5056473;28;20086;-73
2022/03/19 12:36:50;;;;;;;9.00;1.75;;;22.50;47.20;;;;;;5056978;28;20055;-73
2022/03/19 12:39:17;;;;;;;2.80;1.30;;;21.80;48.20;;;;;;5068981;28;20467;-73
2022/03/19 12:41:46;;;;;;;32.65;4.55;;;21.40;47.90;;;;;;5074220;28;20080;-73
2022/03/19 12:44:20;;;;;;;5.35;1.20;;;21.70;48.10;;;;;;5074526;28;20149;-73
2022/03/19 12:46:47;;;;;;;15.32;2.30;;;21.80;47.50;;;;;;5074232;28;20561;-73
2022/03/19 12:49:16;;;;;;;4.53;1.50;;;21.90;47.70;;;;;;5074855;28;20522;-73
2022/03/19 12:51:46;;;;;;;3.22;1.30;;;22.10;47.00;;;;;;5058700;28;20043;-73
2022/03/19 12:54:24;;;;;;;3.47;1.00;;;21.80;47.10;;;;;;5091188;28;21295;-73
2022/03/19 12:56:56;;;;;;;3.80;1.20;;;21.70;46.90;;;;;;5074103;28;20117;-72
2022/03/19 12:59:24;;;;;;;5.93;1.35;;;21.80;47.40;;;;;;5060957;28;20088;-72
2022/03/19 13:01:52;;;;;;;7.65;2.00;;;21.80;47.50;;;;;;5074251;28;20106;-72
2022/03/19 13:04:21;;;;;;;4.20;1.40;;;21.80;47.20;;;;;;5064993;28;20071;-72
2022/03/19 13:06:48;;;;;;;5.82;1.50;;;21.80;47.40;;;;;;5073151;28;20076;-72
2022/03/19 13:09:15;;;;;;;6.95;1.38;;;21.70;47.00;;;;;;5069013;28;20060;-72
2022/03/19 13:11:43;;;;;;;5.18;1.83;;;21.80;47.00;;;;;;5091563;28;20584;-72